createdAt,value
2023-02-18T00:02:06.491Z,4.34
2023-02-18T00:05:08.241Z,4.30
2023-02-18T00:08:09.811Z,4.27
2023-02-18T00:11:11.992Z,4.29
2023-02-18T00:14:15.212Z,4.31
2023-02-18T00:17:16.725Z,4.31
2023-02-18T00:20:18.445Z,4.34
2023-02-18T00:23:19.948Z,4.40
2023-02-18T00:26:21.516Z,4.41
2023-02-18T00:29:23.178Z,4.40
2023-02-18T00:32:24.762Z,4.39
2023-02-18T00:35:26.370Z,4.38
2023-02-18T00:38:27.962Z,4.41
2023-02-18T00:41:29.946Z,4.44
2023-02-18T00:44:32.046Z,4.47
2023-02-18T00:47:33.589Z,4.45
2023-02-18T00:50:35.614Z,4.45
2023-02-18T00:53:37.405Z,4.42
2023-02-18T00:56:55.322Z,4.37
2023-02-18T00:59:56.874Z,4.36
2023-02-18T01:02:58.409Z,4.29
2023-02-18T01:06:00.740Z,4.22
2023-02-18T01:09:02.280Z,4.17
2023-02-18T01:12:04.924Z,4.12
2023-02-18T01:15:08.445Z,4.07
2023-02-18T01:18:10.571Z,3.98
2023-02-18T01:21:12.305Z,3.92
2023-02-18T01:24:13.872Z,3.86
2023-02-18T01:27:17.364Z,3.84
2023-02-18T01:30:20.860Z,3.86
2023-02-18T01:33:22.872Z,3.86
2023-02-18T01:36:24.447Z,3.86
2023-02-18T01:39:29.573Z,3.87
2023-02-18T01:42:31.187Z,3.89
2023-02-18T01:45:37.225Z,3.92
2023-02-18T01:48:42.658Z,3.92
2023-02-18T01:51:49.157Z,3.93
2023-02-18T01:54:55.491Z,3.92
2023-02-18T01:57:57.141Z,3.92
2023-02-18T02:00:58.767Z,3.92
2023-02-18T02:04:00.521Z,3.91
2023-02-18T02:07:02.250Z,3.86
2023-02-18T02:10:04.508Z,3.88
2023-02-18T02:13:27.412Z,3.90
2023-02-18T02:17:03.818Z,3.93
2023-02-18T02:20:24.043Z,3.96
2023-02-18T02:24:02.788Z,3.98
2023-02-18T02:27:57.293Z,3.91
2023-02-18T02:31:08.497Z,3.79
2023-02-18T02:34:43.290Z,3.73
2023-02-18T02:38:08.106Z,3.69
2023-02-18T02:41:28.319Z,3.66
2023-02-18T02:44:48.608Z,3.59
2023-02-18T02:48:05.409Z,3.51
2023-02-18T02:51:35.903Z,3.45
2023-02-18T02:54:37.680Z,3.41
2023-02-18T02:57:50.087Z,3.37
2023-02-18T03:01:14.227Z,3.34
2023-02-18T03:04:24.964Z,3.34
2023-02-18T03:07:54.775Z,3.35
2023-02-18T03:11:09.495Z,3.32
2023-02-18T03:14:17.448Z,3.27
2023-02-18T03:17:27.629Z,3.25
2023-02-18T03:20:35.836Z,3.23
2023-02-18T03:23:53.091Z,3.25
2023-02-18T03:26:59.911Z,3.32
2023-02-18T03:30:07.279Z,3.37
2023-02-18T03:33:11.812Z,3.40
2023-02-18T03:36:13.616Z,3.41
2023-02-18T03:39:17.371Z,3.42
2023-02-18T03:42:19.456Z,3.43
2023-02-18T03:45:21.108Z,3.44
2023-02-18T03:48:23.040Z,3.44
2023-02-18T03:51:27.009Z,3.44
2023-02-18T03:54:28.688Z,3.47
2023-02-18T03:57:30.415Z,3.52
2023-02-18T04:00:32.060Z,3.53
2023-02-18T04:03:33.672Z,3.54
2023-02-18T04:06:35.384Z,3.50
2023-02-18T04:09:36.999Z,3.48
2023-02-18T04:12:38.515Z,3.47
2023-02-18T04:15:40.130Z,3.46
2023-02-18T04:18:41.677Z,3.45
2023-02-18T04:21:43.382Z,3.46
2023-02-18T04:24:44.917Z,3.48
2023-02-18T04:27:46.564Z,3.52
2023-02-18T04:30:48.627Z,3.55
2023-02-18T04:33:50.240Z,3.59
2023-02-18T04:36:51.863Z,3.60
2023-02-18T04:39:53.428Z,3.60
2023-02-18T04:42:54.985Z,3.60
2023-02-18T04:45:56.613Z,3.61
2023-02-18T04:48:58.195Z,3.64
2023-02-18T04:51:59.882Z,3.70
2023-02-18T04:55:01.414Z,3.76
2023-02-18T04:58:03.021Z,3.79
2023-02-18T05:01:05.137Z,3.85
2023-02-18T05:04:06.780Z,3.87
2023-02-18T05:07:08.332Z,3.87
2023-02-18T05:10:12.009Z,3.83
2023-02-18T05:13:13.565Z,3.77
2023-02-18T05:16:15.233Z,3.72
2023-02-18T05:19:17.195Z,3.68
2023-02-18T05:22:18.812Z,3.66
2023-02-18T05:25:20.389Z,3.64
2023-02-18T05:28:21.949Z,3.64
2023-02-18T05:31:23.951Z,3.62
2023-02-18T05:34:25.679Z,3.61
2023-02-18T05:37:27.290Z,3.62
2023-02-18T05:40:28.790Z,3.62
2023-02-18T05:43:30.568Z,3.64
2023-02-18T05:46:32.227Z,3.68
2023-02-18T05:49:35.695Z,3.73
2023-02-18T05:52:37.551Z,3.76
2023-02-18T05:55:39.401Z,3.75
2023-02-18T05:58:41.001Z,3.74
2023-02-18T06:01:42.619Z,3.70
2023-02-18T06:04:44.156Z,3.67
2023-02-18T06:07:45.717Z,3.66
2023-02-18T06:10:47.344Z,3.66
2023-02-18T06:13:48.915Z,3.68
2023-02-18T06:16:50.581Z,3.71
2023-02-18T06:19:52.201Z,3.72
2023-02-18T06:22:53.797Z,3.75
2023-02-18T06:25:55.431Z,3.78
2023-02-18T06:28:57.059Z,3.78
2023-02-18T06:31:59.412Z,3.79
2023-02-18T06:35:01.131Z,3.78
2023-02-18T06:38:02.758Z,3.79
2023-02-18T06:41:04.708Z,3.79
2023-02-18T06:44:06.325Z,3.79
2023-02-18T06:47:07.885Z,3.80
2023-02-18T06:50:09.795Z,3.82
2023-02-18T06:53:12.073Z,3.86
2023-02-18T06:56:13.620Z,3.91
2023-02-18T06:59:15.196Z,3.98
2023-02-18T07:02:17.174Z,4.02
2023-02-18T07:05:18.858Z,4.05
2023-02-18T07:08:20.594Z,4.06
2023-02-18T07:11:22.140Z,4.09
2023-02-18T07:14:24.818Z,4.08
2023-02-18T07:17:26.455Z,4.08
2023-02-18T07:20:28.738Z,4.11
2023-02-18T07:23:30.392Z,4.09
2023-02-18T07:26:32.104Z,4.11
2023-02-18T07:29:33.604Z,4.12
2023-02-18T07:32:35.326Z,4.14
2023-02-18T07:35:36.976Z,4.19
2023-02-18T07:38:38.615Z,4.26
2023-02-18T07:41:40.201Z,4.29
2023-02-18T07:44:48.419Z,4.34
2023-02-18T07:47:49.940Z,4.42
2023-02-18T07:50:51.513Z,4.52
2023-02-18T07:53:53.081Z,4.60
2023-02-18T07:56:57.657Z,4.68
2023-02-18T07:59:59.086Z,4.75
2023-02-18T08:03:00.589Z,4.84
2023-02-18T08:06:03.080Z,4.91
2023-02-18T08:09:05.091Z,4.91
2023-02-18T08:12:07.009Z,4.90
2023-02-18T08:15:09.078Z,4.87
2023-02-18T08:18:18.252Z,4.86
2023-02-18T08:21:21.344Z,4.86
2023-02-18T08:24:22.920Z,4.91
2023-02-18T08:27:24.772Z,4.97
2023-02-18T08:30:27.221Z,5.06
2023-02-18T08:33:29.400Z,5.17
2023-02-18T08:36:31.079Z,5.25
2023-02-18T08:39:39.542Z,5.31
2023-02-18T08:42:41.516Z,5.31
2023-02-18T08:45:44.061Z,5.31
2023-02-18T08:48:45.725Z,5.32
2023-02-18T08:51:48.179Z,5.31
2023-02-18T08:54:49.917Z,5.32
2023-02-18T08:57:51.506Z,5.33
2023-02-18T09:00:53.089Z,5.38
2023-02-18T09:03:54.769Z,5.48
2023-02-18T09:06:56.494Z,5.55
2023-02-18T09:09:58.013Z,5.63
2023-02-18T09:12:59.533Z,5.70
2023-02-18T09:16:04.405Z,5.72
2023-02-18T09:19:06.422Z,5.78
2023-02-18T09:22:07.953Z,5.85
2023-02-18T09:25:09.954Z,5.91
2023-02-18T09:28:11.470Z,5.99
2023-02-18T09:31:16.558Z,6.11
2023-02-18T09:34:18.380Z,6.21
2023-02-18T09:37:20.117Z,6.32
2023-02-18T09:40:27.882Z,6.41
2023-02-18T09:43:33.785Z,6.50
2023-02-18T09:46:48.884Z,6.59
2023-02-18T09:50:20.115Z,6.63
2023-02-18T09:53:23.040Z,6.60
2023-02-18T09:56:30.970Z,6.64
2023-02-18T09:59:32.726Z,6.65
2023-02-18T10:02:34.532Z,6.67
2023-02-18T10:05:37.073Z,6.75
2023-02-18T10:08:43.765Z,6.80
2023-02-18T10:11:49.598Z,6.87
2023-02-18T10:14:53.398Z,6.93
2023-02-18T10:17:57.416Z,7.01
2023-02-18T10:21:32.997Z,7.08
2023-02-18T10:24:43.741Z,7.13
2023-02-18T10:27:45.170Z,7.18
2023-02-18T10:31:01.749Z,7.22
2023-02-18T10:34:22.094Z,7.22
2023-02-18T10:37:27.948Z,7.30
2023-02-18T10:40:32.892Z,7.47
2023-02-18T10:43:53.142Z,7.61
2023-02-18T10:47:03.910Z,7.71
2023-02-18T10:50:05.383Z,7.74
2023-02-18T10:53:31.156Z,7.73
2023-02-18T10:56:35.250Z,7.77
2023-02-18T10:59:36.908Z,7.88
2023-02-18T11:02:39.570Z,8.01
2023-02-18T11:05:41.278Z,8.11
2023-02-18T11:08:44.128Z,8.15
2023-02-18T11:11:50.711Z,8.11
2023-02-18T11:15:14.051Z,8.12
2023-02-18T11:18:37.651Z,8.13
2023-02-18T11:21:39.255Z,8.18
2023-02-18T11:24:41.635Z,8.22
2023-02-18T11:27:50.433Z,8.24
2023-02-18T11:30:56.953Z,8.24
2023-02-18T11:34:01.243Z,8.23
2023-02-18T11:37:29.158Z,8.24
2023-02-18T11:40:36.274Z,8.32
2023-02-18T11:43:42.108Z,8.45
2023-02-18T11:47:17.734Z,8.54
2023-02-18T11:50:22.620Z,8.60
2023-02-18T11:53:30.704Z,8.66
2023-02-18T11:56:34.673Z,8.71
2023-02-18T11:59:39.547Z,8.77
2023-02-18T12:02:41.321Z,8.84
2023-02-18T12:05:44.493Z,8.89
2023-02-18T12:08:50.240Z,8.93
2023-02-18T12:11:58.612Z,9.01
2023-02-18T12:15:01.402Z,9.13
2023-02-18T12:18:46.815Z,9.29
2023-02-18T12:22:12.744Z,9.46
2023-02-18T12:25:49.602Z,9.63
2023-02-18T12:28:56.921Z,9.77
2023-02-18T12:32:24.350Z,9.86
2023-02-18T12:35:45.420Z,10.02
2023-02-18T12:39:11.584Z,10.13
2023-02-18T12:42:28.700Z,10.23
2023-02-18T12:46:05.665Z,10.40
2023-02-18T12:49:21.379Z,10.57
2023-02-18T12:52:31.908Z,10.76
2023-02-18T12:56:11.404Z,10.84
2023-02-18T12:59:31.400Z,10.93
2023-02-18T13:03:00.629Z,11.03
2023-02-18T13:06:22.906Z,11.08
2023-02-18T13:09:30.588Z,11.13
2023-02-18T13:12:39.519Z,11.20
2023-02-18T13:15:48.539Z,11.29
2023-02-18T13:19:11.267Z,11.35
2023-02-18T13:22:15.680Z,11.40
2023-02-18T13:25:19.140Z,11.50
2023-02-18T13:28:29.903Z,11.73
2023-02-18T13:31:50.519Z,12.01
2023-02-18T13:34:59.234Z,12.15
2023-02-18T13:38:20.716Z,12.24
2023-02-18T13:41:22.723Z,12.29
2023-02-18T13:44:24.320Z,12.38
2023-02-18T13:47:41.162Z,12.51
2023-02-18T13:50:43.500Z,12.60
2023-02-18T13:53:51.631Z,12.71
2023-02-18T13:57:20.993Z,12.78
2023-02-18T14:00:25.613Z,12.78
2023-02-18T14:03:42.490Z,12.83
2023-02-18T14:07:23.697Z,12.93
2023-02-18T14:10:34.131Z,13.11
2023-02-18T14:13:49.659Z,13.25
2023-02-18T14:17:20.382Z,13.35
2023-02-18T14:20:21.998Z,13.33
2023-02-18T14:23:23.516Z,13.30
2023-02-18T14:26:32.665Z,13.29
2023-02-18T14:29:34.301Z,13.25
2023-02-18T14:32:39.767Z,13.24
2023-02-18T14:35:53.198Z,13.29
2023-02-18T14:39:09.959Z,13.38
2023-02-18T14:42:20.293Z,13.49
2023-02-18T14:45:32.731Z,13.53
2023-02-18T14:48:46.320Z,13.59
2023-02-18T14:51:48.285Z,13.68
2023-02-18T14:54:49.873Z,13.74
2023-02-18T14:57:55.249Z,13.80
2023-02-18T15:00:56.894Z,13.89
2023-02-18T15:03:58.493Z,13.89
2023-02-18T15:07:05.281Z,13.83
2023-02-18T15:10:13.883Z,13.78
2023-02-18T15:13:27.649Z,13.71
2023-02-18T15:16:29.177Z,13.63
2023-02-18T15:19:37.855Z,13.58
2023-02-18T15:22:40.022Z,13.51
2023-02-18T15:25:42.991Z,13.41
2023-02-18T15:28:58.577Z,13.33
2023-02-18T15:32:03.247Z,13.29
2023-02-18T15:35:16.732Z,13.32
2023-02-18T15:38:20.026Z,13.31
2023-02-18T15:41:23.102Z,13.27
2023-02-18T15:44:27.490Z,13.16
2023-02-18T15:47:29.373Z,13.06
2023-02-18T15:50:36.804Z,12.94
2023-02-18T15:53:40.016Z,12.76
2023-02-18T15:56:44.237Z,12.62
2023-02-18T15:59:53.800Z,12.45
2023-02-18T16:03:03.203Z,12.31
2023-02-18T16:06:25.908Z,12.23
2023-02-18T16:09:30.754Z,12.16
2023-02-18T16:12:32.773Z,12.11
2023-02-18T16:15:39.952Z,12.06
2023-02-18T16:18:42.809Z,11.97
2023-02-18T16:21:45.157Z,11.91
2023-02-18T16:24:51.857Z,11.85
2023-02-18T16:28:04.033Z,11.78
2023-02-18T16:31:05.599Z,11.69
2023-02-18T16:34:07.175Z,11.59
2023-02-18T16:37:28.354Z,11.52
2023-02-18T16:40:40.694Z,11.43
2023-02-18T16:43:42.944Z,11.34
2023-02-18T16:46:44.791Z,11.25
2023-02-18T16:49:48.393Z,11.18
2023-02-18T16:52:50.329Z,11.12
2023-02-18T16:55:51.974Z,11.06
2023-02-18T16:59:12.237Z,11.00
2023-02-18T17:02:20.783Z,10.92
2023-02-18T17:05:26.969Z,10.80
2023-02-18T17:08:28.770Z,10.67
2023-02-18T17:11:33.414Z,10.51
2023-02-18T17:14:34.954Z,10.34
2023-02-18T17:17:36.553Z,10.15
2023-02-18T17:20:38.739Z,9.99
2023-02-18T17:23:41.256Z,9.86
2023-02-18T17:26:43.125Z,9.74
2023-02-18T17:29:44.641Z,9.61
2023-02-18T17:32:46.683Z,9.50
2023-02-18T17:35:48.373Z,9.43
2023-02-18T17:38:50.046Z,9.36
2023-02-18T17:41:52.204Z,9.30
2023-02-18T17:44:53.722Z,9.25
2023-02-18T17:47:59.516Z,9.19
2023-02-18T17:51:01.170Z,9.11
2023-02-18T17:54:03.430Z,9.04
2023-02-18T17:57:05.040Z,8.95
2023-02-18T18:00:07.487Z,8.83
2023-02-18T18:03:11.594Z,8.73
2023-02-18T18:06:17.680Z,8.65
2023-02-18T18:09:19.351Z,8.57
2023-02-18T18:12:20.882Z,8.49
2023-02-18T18:15:48.660Z,8.38
2023-02-18T18:18:50.243Z,8.31
2023-02-18T18:21:51.748Z,8.24
2023-02-18T18:24:53.441Z,8.18
2023-02-18T18:27:55.393Z,8.08
2023-02-18T18:30:57.771Z,7.99
2023-02-18T18:33:59.407Z,7.92
2023-02-18T18:37:00.984Z,7.90
2023-02-18T18:40:02.563Z,7.87
2023-02-18T18:43:04.552Z,7.86
2023-02-18T18:46:06.607Z,7.79
2023-02-18T18:49:08.208Z,7.72
2023-02-18T18:52:15.529Z,7.66
2023-02-18T18:55:25.023Z,7.60
2023-02-18T18:58:26.682Z,7.56
2023-02-18T19:01:29.280Z,7.51
2023-02-18T19:04:30.979Z,7.47
2023-02-18T19:07:32.518Z,7.43
2023-02-18T19:10:37.346Z,7.37
2023-02-18T19:13:39.381Z,7.27
2023-02-18T19:16:42.839Z,7.22
2023-02-18T19:19:44.552Z,7.17
2023-02-18T19:22:46.649Z,7.13
2023-02-18T19:25:48.289Z,7.15
2023-02-18T19:28:49.812Z,7.15
2023-02-18T19:31:51.440Z,7.17
2023-02-18T19:34:52.976Z,7.16
2023-02-18T19:37:54.786Z,7.13
2023-02-18T19:40:56.726Z,7.08
2023-02-18T19:43:58.361Z,7.03
2023-02-18T19:47:01.014Z,6.97
2023-02-18T19:50:03.419Z,6.95
2023-02-18T19:53:04.948Z,6.92
2023-02-18T19:56:07.538Z,6.91
2023-02-18T19:59:09.179Z,6.92
2023-02-18T20:02:19.628Z,6.94
2023-02-18T20:05:21.420Z,6.96
2023-02-18T20:08:22.946Z,6.96
2023-02-18T20:11:24.593Z,6.93
2023-02-18T20:14:27.188Z,6.90
2023-02-18T20:17:28.748Z,6.86
2023-02-18T20:20:30.387Z,6.81
2023-02-18T20:23:31.937Z,6.75
2023-02-18T20:26:33.588Z,6.72
2023-02-18T20:29:36.292Z,6.68
2023-02-18T20:32:38.411Z,6.64
2023-02-18T20:35:39.973Z,6.56
2023-02-18T20:38:41.783Z,6.51
2023-02-18T20:41:44.617Z,6.48
2023-02-18T20:44:46.621Z,6.49
2023-02-18T20:47:48.176Z,6.50
2023-02-18T20:50:49.748Z,6.51
2023-02-18T20:53:51.747Z,6.53
2023-02-18T20:56:53.312Z,6.50
2023-02-18T20:59:55.132Z,6.45
2023-02-18T21:02:56.700Z,6.42
2023-02-18T21:06:01.440Z,6.40
2023-02-18T21:09:03.363Z,6.36
2023-02-18T21:12:05.258Z,6.34
2023-02-18T21:15:07.088Z,6.28
2023-02-18T21:18:08.596Z,6.25
2023-02-18T21:21:11.163Z,6.22
2023-02-18T21:24:13.165Z,6.14
2023-02-18T21:27:14.812Z,6.01
2023-02-18T21:30:16.506Z,5.89
2023-02-18T21:33:18.084Z,5.82
2023-02-18T21:36:20.495Z,5.75
2023-02-18T21:39:22.084Z,5.69
2023-02-18T21:42:23.653Z,5.63
2023-02-18T21:45:27.504Z,5.58
2023-02-18T21:48:47.789Z,5.52
2023-02-18T21:52:08.289Z,5.48
2023-02-18T21:55:12.387Z,5.43
2023-02-18T21:58:13.951Z,5.44
2023-02-18T22:01:15.564Z,5.45
2023-02-18T22:04:17.218Z,5.46
2023-02-18T22:07:20.621Z,5.40
2023-02-18T22:10:22.250Z,5.37
2023-02-18T22:13:23.804Z,5.34
2023-02-18T22:16:28.197Z,5.26
2023-02-18T22:19:29.973Z,5.21
2023-02-18T22:22:32.244Z,5.16
2023-02-18T22:25:35.320Z,5.12
2023-02-18T22:28:37.378Z,5.08
2023-02-18T22:31:39.210Z,5.04
2023-02-18T22:34:40.847Z,5.01
2023-02-18T22:37:42.350Z,5.02
2023-02-18T22:40:43.867Z,5.03
2023-02-18T22:43:46.013Z,5.02
2023-02-18T22:46:47.601Z,5.04
2023-02-18T22:49:49.178Z,5.06
2023-02-18T22:52:50.713Z,5.09
2023-02-18T22:55:52.294Z,5.09
2023-02-18T22:58:55.666Z,5.09
2023-02-18T23:01:57.405Z,5.11
2023-02-18T23:04:58.917Z,5.11
2023-02-18T23:08:00.438Z,5.12
2023-02-18T23:11:03.320Z,5.12
2023-02-18T23:14:19.872Z,5.17
2023-02-18T23:17:24.392Z,5.15
2023-02-18T23:20:46.171Z,5.08
2023-02-18T23:23:53.070Z,4.96
2023-02-18T23:26:54.683Z,4.87
2023-02-18T23:29:56.558Z,4.82
2023-02-18T23:32:58.142Z,4.83
2023-02-18T23:36:08.674Z,4.84
2023-02-18T23:39:13.515Z,4.85
2023-02-18T23:42:24.363Z,4.87
2023-02-18T23:45:26.068Z,4.91
2023-02-18T23:48:27.585Z,4.97
2023-02-18T23:51:32.457Z,5.02
2023-02-18T23:54:34.286Z,5.06
2023-02-18T23:57:36.523Z,5.09
